createdAt,value
2022-11-23T00:01:38.777Z,286.22222
2022-11-23T00:06:40.525Z,294
2022-11-23T00:11:42.398Z,292.0226
2022-11-23T00:16:44.165Z,300.06936
2022-11-23T00:21:46.039Z,300.06936
2022-11-23T00:26:47.885Z,317.33333
2022-11-23T00:31:49.728Z,282.46154
2022-11-23T00:36:51.720Z,286.22222
2022-11-23T00:41:53.438Z,304.23392
2022-11-23T00:46:55.166Z,317.33333
2022-11-23T00:51:57.301Z,304.23392
2022-11-23T00:56:59.123Z,300.06936
2022-11-23T01:02:01.040Z,304.23392
2022-11-23T01:07:02.976Z,292.0226
2022-11-23T01:12:04.665Z,280.61202
2022-11-23T01:17:06.476Z,288.13408
2022-11-23T01:22:08.225Z,288.13408
2022-11-23T01:27:09.925Z,261.52577
2022-11-23T01:32:11.595Z,237.33333
2022-11-23T01:37:13.409Z,243.02913
2022-11-23T01:42:17.727Z,237.33333
2022-11-23T01:47:20.107Z,241.58454
2022-11-23T01:52:21.888Z,241.58454
2022-11-23T01:57:23.550Z,282.46154
2022-11-23T02:02:25.341Z,268.21053
2022-11-23T02:07:27.219Z,261.52577
2022-11-23T02:12:28.993Z,252
2022-11-23T02:17:30.743Z,292.0226
2022-11-23T02:22:33.148Z,317.33333
2022-11-23T02:27:34.908Z,302.13953
2022-11-23T02:32:36.664Z,296
2022-11-23T02:37:38.532Z,278.78261
2022-11-23T02:42:40.460Z,284.33149
2022-11-23T02:47:42.208Z,288.13408
2022-11-23T02:52:44.327Z,288.13408
2022-11-23T02:57:46.190Z,280.61202
2022-11-23T03:02:47.946Z,296
2022-11-23T03:07:49.805Z,290.06742
2022-11-23T03:12:51.828Z,288.13408
2022-11-23T03:17:53.611Z,290.06742
2022-11-23T03:22:55.504Z,286.22222
2022-11-23T03:27:57.325Z,280.61202
2022-11-23T03:32:59.039Z,261.52577
2022-11-23T03:38:00.911Z,237.33333
2022-11-23T03:43:02.701Z,234.56604
2022-11-23T03:48:04.480Z,225.27854
2022-11-23T03:53:06.376Z,224
2022-11-23T03:58:08.234Z,225.27854
2022-11-23T04:03:12.480Z,201.74059
2022-11-23T04:08:14.460Z,192.3871
2022-11-23T04:13:16.290Z,199.60166
2022-11-23T04:18:18.299Z,191.38956
2022-11-23T04:23:20.153Z,205.01695
2022-11-23T04:28:22.211Z,206.12766
2022-11-23T04:33:24.136Z,226.56881
2022-11-23T04:38:26.424Z,217.77778
2022-11-23T04:43:28.195Z,219
2022-11-23T04:48:29.937Z,245.96078
2022-11-23T04:53:31.841Z,259.89744
2022-11-23T04:58:34.748Z,276.97297
2022-11-23T05:03:36.601Z,271.65957
2022-11-23T05:08:38.485Z,266.51309
2022-11-23T05:13:40.464Z,263.17098
2022-11-23T05:18:42.135Z,264.83333
2022-11-23T05:23:44.157Z,278.78261
2022-11-23T05:28:45.895Z,275.1828
2022-11-23T05:33:47.653Z,269.92593
2022-11-23T05:38:49.859Z,275.1828
2022-11-23T05:43:54.464Z,258.28571
2022-11-23T05:48:56.276Z,256.69036
2022-11-23T05:53:58.468Z,250.46766
2022-11-23T05:59:00.336Z,263.17098
2022-11-23T06:04:02.331Z,268.21053
2022-11-23T06:09:04.152Z,264.83333
2022-11-23T06:14:08.846Z,259.89744
2022-11-23T06:19:14.764Z,266.51309
2022-11-23T06:24:17.151Z,255.11111
2022-11-23T06:29:19.265Z,259.89744
2022-11-23T06:34:20.959Z,261.52577
2022-11-23T06:39:22.996Z,269.92593
2022-11-23T06:44:25.676Z,282.46154
2022-11-23T06:49:27.327Z,276.97297
2022-11-23T06:54:29.055Z,259.89744
2022-11-23T06:59:31.487Z,250.46766
2022-11-23T07:04:33.249Z,248.9505
2022-11-23T07:09:35.231Z,252
2022-11-23T07:14:37.313Z,266.51309
2022-11-23T07:19:39.699Z,275.1828
2022-11-23T07:24:46.410Z,282.46154
2022-11-23T07:29:48.533Z,296
2022-11-23T07:34:50.419Z,288.13408
2022-11-23T07:39:57.243Z,286.22222
2022-11-23T07:44:59.668Z,280.61202
2022-11-23T07:50:01.368Z,269.92593
2022-11-23T07:55:03.230Z,264.83333
2022-11-23T08:00:04.866Z,268.21053
2022-11-23T08:05:09.985Z,268.21053
2022-11-23T08:10:15.044Z,263.17098
2022-11-23T08:15:16.698Z,268.21053
2022-11-23T08:20:18.384Z,264.83333
2022-11-23T08:25:20.155Z,269.92593
2022-11-23T08:30:21.831Z,264.83333
2022-11-23T08:35:23.552Z,264.83333
2022-11-23T08:40:25.974Z,258.28571
2022-11-23T08:45:27.840Z,258.28571
2022-11-23T08:50:29.488Z,244.4878
2022-11-23T08:55:31.561Z,255.11111
2022-11-23T09:00:33.195Z,256.69036
2022-11-23T09:05:34.866Z,252
2022-11-23T09:10:36.569Z,248.9505
2022-11-23T09:15:38.286Z,253.54774
2022-11-23T09:20:40.337Z,258.28571
2022-11-23T09:25:42.185Z,263.17098
2022-11-23T09:30:44.000Z,269.92593
2022-11-23T09:35:45.827Z,268.21053
2022-11-23T09:40:47.852Z,264.83333
2022-11-23T09:45:49.639Z,264.83333
2022-11-23T09:50:55.101Z,271.65957
2022-11-23T09:55:57.090Z,261.52577
2022-11-23T10:00:58.943Z,269.92593
2022-11-23T10:06:00.803Z,261.52577
2022-11-23T10:11:02.877Z,250.46766
2022-11-23T10:16:06.097Z,244.4878
2022-11-23T10:21:07.874Z,250.46766
2022-11-23T10:26:09.720Z,258.28571
2022-11-23T10:31:11.865Z,256.69036
2022-11-23T10:36:13.593Z,256.69036
2022-11-23T10:41:15.375Z,261.52577
2022-11-23T10:46:17.118Z,255.11111
2022-11-23T10:51:18.853Z,256.69036
2022-11-23T10:56:20.595Z,259.89744
2022-11-23T11:01:22.372Z,258.28571
2022-11-23T11:06:24.039Z,253.54774
2022-11-23T11:11:25.813Z,252
2022-11-23T11:16:27.579Z,252
2022-11-23T11:21:29.331Z,256.69036
2022-11-23T11:26:31.372Z,252
2022-11-23T11:31:33.247Z,248.9505
2022-11-23T11:36:35.020Z,244.4878
2022-11-23T11:41:37.118Z,245.96078
2022-11-23T11:46:38.906Z,255.11111
2022-11-23T11:51:40.627Z,263.17098
2022-11-23T11:56:42.626Z,271.65957
2022-11-23T12:01:44.391Z,271.65957
2022-11-23T12:06:46.066Z,276.97297
2022-11-23T12:11:48.025Z,266.51309
2022-11-23T12:17:10.243Z,268.21053
2022-11-23T12:22:26.864Z,306.35294
2022-11-23T12:27:28.707Z,278.78261
2022-11-23T12:32:30.461Z,258.28571
2022-11-23T12:37:32.112Z,263.17098
2022-11-23T12:42:34.019Z,252
2022-11-23T12:47:35.729Z,250.46766
2022-11-23T12:52:37.926Z,250.46766
2022-11-23T12:57:39.837Z,250.46766
2022-11-23T13:02:41.736Z,252
2022-11-23T13:07:47.737Z,294
2022-11-23T13:12:51.107Z,288.13408
2022-11-23T13:17:53.185Z,302.13953
2022-11-23T13:22:54.960Z,312.86228
2022-11-23T13:27:56.748Z,310.66667
2022-11-23T13:32:58.403Z,308.49704
2022-11-23T13:38:00.307Z,315.08434
2022-11-23T13:43:02.381Z,319.60976
2022-11-23T13:48:04.122Z,306.35294
2022-11-23T13:53:05.976Z,300.06936
2022-11-23T13:58:07.704Z,276.97297
2022-11-23T14:03:09.363Z,268.21053
2022-11-23T14:08:11.201Z,282.46154
2022-11-23T14:13:13.336Z,286.22222
2022-11-23T14:18:15.110Z,290.06742
2022-11-23T14:23:16.895Z,273.41176
2022-11-23T14:28:18.900Z,275.1828
2022-11-23T14:33:20.551Z,282.46154
2022-11-23T14:38:22.241Z,276.97297
2022-11-23T14:43:24.039Z,284.33149
2022-11-23T14:48:25.736Z,284.33149
2022-11-23T14:53:27.440Z,271.65957
2022-11-23T14:58:29.181Z,264.83333
2022-11-23T15:03:50.803Z,275.1828
2022-11-23T15:08:52.916Z,280.61202
2022-11-23T15:13:54.673Z,280.61202
2022-11-23T15:18:56.353Z,282.46154
2022-11-23T15:23:58.123Z,273.41176
2022-11-23T15:28:59.856Z,271.65957
2022-11-23T15:34:01.679Z,273.41176
2022-11-23T15:39:03.350Z,266.51309
2022-11-23T15:44:07.488Z,263.17098
2022-11-23T15:49:09.133Z,271.65957
2022-11-23T15:54:10.815Z,269.92593
2022-11-23T15:59:12.706Z,276.97297
2022-11-23T16:04:14.385Z,268.21053
2022-11-23T16:09:49.262Z,225.27854
2022-11-23T16:14:52.843Z,248.9505
2022-11-23T16:19:54.577Z,252
2022-11-23T16:24:56.202Z,255.11111
2022-11-23T16:30:02.810Z,256.69036
2022-11-23T16:35:05.182Z,268.21053
2022-11-23T16:40:06.832Z,294
2022-11-23T16:45:08.614Z,294
2022-11-23T16:50:10.234Z,290.06742
2022-11-23T16:55:11.828Z,280.61202
2022-11-23T17:00:13.741Z,278.78261
2022-11-23T17:05:15.445Z,276.97297
2022-11-23T17:10:17.202Z,275.1828
2022-11-23T17:15:20.541Z,268.21053
2022-11-23T17:20:22.414Z,282.46154
2022-11-23T17:25:24.117Z,269.92593
2022-11-23T17:30:25.851Z,269.92593
2022-11-23T17:35:27.529Z,273.41176
2022-11-23T17:40:29.422Z,298.02299
2022-11-23T17:45:31.407Z,273.41176
2022-11-23T17:50:33.074Z,300.06936
2022-11-23T17:55:34.721Z,312.86228
2022-11-23T18:00:36.333Z,324.24691
2022-11-23T18:05:38.024Z,321.91411
2022-11-23T18:10:39.865Z,315.08434
2022-11-23T18:15:41.553Z,319.60976
2022-11-23T18:20:43.254Z,333.87342
2022-11-23T18:25:45.064Z,341.41935
2022-11-23T18:30:46.865Z,351.94702
2022-11-23T18:35:48.830Z,341.41935
2022-11-23T18:40:50.614Z,354.66667
2022-11-23T18:45:52.255Z,346.61438
2022-11-23T18:50:54.005Z,351.94702
2022-11-23T18:56:00.299Z,365.91781
2022-11-23T19:01:03.344Z,346.61438
2022-11-23T19:06:05.136Z,346.61438
2022-11-23T19:11:06.792Z,360.21622
2022-11-23T19:16:08.689Z,368.82759
2022-11-23T19:21:10.440Z,371.77778
2022-11-23T19:26:12.093Z,363.04762
2022-11-23T19:31:13.934Z,326.6087
2022-11-23T19:36:15.859Z,336.35669
2022-11-23T19:41:17.604Z,354.66667
2022-11-23T19:46:19.347Z,331.42138
2022-11-23T19:51:21.017Z,326.6087
2022-11-23T19:56:22.745Z,333.87342
2022-11-23T20:01:24.490Z,326.6087
2022-11-23T20:06:26.274Z,331.42138
2022-11-23T20:11:27.921Z,333.87342
2022-11-23T20:16:29.660Z,333.87342
2022-11-23T20:21:31.496Z,333.87342
2022-11-23T20:26:33.423Z,336.35669
2022-11-23T20:31:35.135Z,336.35669
2022-11-23T20:36:36.807Z,344
2022-11-23T20:41:38.527Z,349.26316
2022-11-23T20:47:02.787Z,351.94702
2022-11-23T20:52:05.107Z,349.26316
2022-11-23T20:57:06.740Z,354.66667
2022-11-23T21:02:08.360Z,360.21622
2022-11-23T21:07:10.175Z,349.26316
2022-11-23T21:12:11.865Z,357.42282
2022-11-23T21:17:13.563Z,344
2022-11-23T21:22:15.180Z,306.35294
2022-11-23T21:27:16.808Z,312.86228
2022-11-23T21:32:18.501Z,346.61438
2022-11-23T21:37:20.174Z,363.04762
2022-11-23T21:42:21.803Z,354.66667
2022-11-23T21:47:23.478Z,341.41935
2022-11-23T21:52:25.132Z,351.94702
2022-11-23T21:57:26.756Z,351.94702
2022-11-23T22:02:28.545Z,357.42282
2022-11-23T22:07:30.288Z,357.42282
2022-11-23T22:12:31.931Z,354.66667
2022-11-23T22:17:33.582Z,349.26316
2022-11-23T22:22:35.199Z,351.94702
2022-11-23T22:27:36.827Z,349.26316
2022-11-23T22:32:38.450Z,349.26316
2022-11-23T22:37:40.088Z,346.61438
2022-11-23T22:42:41.738Z,336.35669
2022-11-23T22:47:43.392Z,344
2022-11-23T22:52:44.996Z,333.87342
2022-11-23T22:57:46.628Z,298.02299
2022-11-23T23:02:48.562Z,294
2022-11-23T23:07:50.397Z,284.33149
2022-11-23T23:12:52.212Z,244.4878
2022-11-23T23:17:53.889Z,264.83333
2022-11-23T23:22:56.197Z,238.73684
2022-11-23T23:27:58.020Z,261.52577
2022-11-23T23:32:59.845Z,252
2022-11-23T23:38:01.609Z,268.21053
2022-11-23T23:43:03.305Z,286.22222
2022-11-23T23:48:04.982Z,219
2022-11-23T23:53:06.669Z,238.73684
2022-11-23T23:58:08.298Z,226.56881
